createdAt,value
2023-05-19T00:01:25.115Z,100.00
2023-05-19T00:03:54.754Z,100.00
2023-05-19T00:06:27.289Z,100.00
2023-05-19T00:09:06.097Z,100.00
2023-05-19T00:11:36.344Z,100.00
2023-05-19T00:14:04.428Z,100.00
2023-05-19T00:16:32.382Z,100.00
2023-05-19T00:19:00.854Z,100.00
2023-05-19T00:21:29.516Z,100.00
2023-05-19T00:23:56.768Z,100.00
2023-05-19T00:26:24.952Z,100.00
2023-05-19T00:28:54.462Z,100.00
2023-05-19T00:31:21.851Z,100.00
2023-05-19T00:33:49.279Z,100.00
2023-05-19T00:36:16.803Z,100.00
2023-05-19T00:38:44.013Z,100.00
2023-05-19T00:41:11.933Z,100.00
2023-05-19T00:43:39.429Z,100.00
2023-05-19T00:46:07.596Z,100.00
2023-05-19T00:48:35.257Z,100.00
2023-05-19T00:51:05.292Z,100.00
2023-05-19T00:53:34.090Z,100.00
2023-05-19T00:56:02.449Z,100.00
2023-05-19T00:58:32.675Z,100.00
2023-05-19T01:01:06.968Z,100.00
2023-05-19T01:03:36.269Z,100.00
2023-05-19T01:06:07.943Z,100.00
2023-05-19T01:08:39.461Z,100.00
2023-05-19T01:11:07.337Z,100.00
2023-05-19T01:13:35.931Z,100.00
2023-05-19T01:16:32.308Z,100.00
2023-05-19T01:19:21.217Z,100.00
2023-05-19T01:21:54.084Z,100.00
2023-05-19T01:24:53.504Z,100.00
2023-05-19T01:27:43.347Z,100.00
2023-05-19T01:30:17.014Z,100.00
2023-05-19T01:32:45.723Z,100.00
2023-05-19T01:35:14.439Z,100.00
2023-05-19T01:37:41.706Z,100.00
2023-05-19T01:40:11.036Z,100.00
2023-05-19T01:42:40.108Z,100.00
2023-05-19T01:45:11.244Z,100.00
2023-05-19T01:47:42.998Z,100.00
2023-05-19T01:50:11.238Z,100.00
2023-05-19T01:52:38.887Z,100.00
2023-05-19T01:55:06.905Z,100.00
2023-05-19T01:57:53.834Z,100.00
2023-05-19T02:00:35.081Z,100.00
2023-05-19T02:03:12.035Z,100.00
2023-05-19T02:06:07.262Z,100.00
2023-05-19T02:09:04.333Z,100.00
2023-05-19T02:12:07.489Z,100.00
2023-05-19T02:14:44.109Z,100.00
2023-05-19T02:17:13.433Z,100.00
2023-05-19T02:19:41.206Z,100.00
2023-05-19T02:22:08.634Z,100.00
2023-05-19T02:24:37.719Z,100.00
2023-05-19T02:27:05.478Z,100.00
2023-05-19T02:29:33.036Z,100.00
2023-05-19T02:32:01.562Z,100.00
2023-05-19T02:34:28.920Z,100.00
2023-05-19T02:36:57.783Z,100.00
2023-05-19T02:39:25.034Z,100.00
2023-05-19T02:41:52.214Z,100.00
2023-05-19T02:44:19.855Z,100.00
2023-05-19T02:46:47.168Z,100.00
2023-05-19T02:49:14.952Z,100.00
2023-05-19T02:51:42.646Z,100.00
2023-05-19T02:54:10.093Z,100.00
2023-05-19T02:56:37.280Z,100.00
2023-05-19T02:59:04.832Z,100.00
2023-05-19T03:01:32.823Z,100.00
2023-05-19T03:04:00.289Z,100.00
2023-05-19T03:06:28.316Z,100.00
2023-05-19T03:08:55.669Z,100.00
2023-05-19T03:11:23.359Z,100.00
2023-05-19T03:13:50.819Z,100.00
2023-05-19T03:16:18.099Z,100.00
2023-05-19T03:18:46.027Z,100.00
2023-05-19T03:21:13.472Z,100.00
2023-05-19T03:23:40.645Z,100.00
2023-05-19T03:26:07.932Z,100.00
2023-05-19T03:28:35.597Z,100.00
2023-05-19T03:31:03.171Z,100.00
2023-05-19T03:33:32.616Z,100.00
2023-05-19T03:36:00.174Z,100.00
2023-05-19T03:38:28.597Z,100.00
2023-05-19T03:40:56.276Z,100.00
2023-05-19T03:43:23.762Z,100.00
2023-05-19T03:45:51.834Z,100.00
2023-05-19T03:48:21.454Z,100.00
2023-05-19T03:50:50.950Z,100.00
2023-05-19T03:53:18.467Z,100.00
2023-05-19T03:55:46.395Z,100.00
2023-05-19T03:58:14.699Z,100.00
2023-05-19T04:00:42.496Z,100.00
2023-05-19T04:03:10.190Z,100.00
2023-05-19T04:05:37.596Z,100.00
2023-05-19T04:08:04.976Z,100.00
2023-05-19T04:10:32.726Z,100.00
2023-05-19T04:13:00.151Z,100.00
2023-05-19T04:15:27.561Z,100.00
2023-05-19T04:17:56.324Z,100.00
2023-05-19T04:20:23.696Z,100.00
2023-05-19T04:22:51.133Z,100.00
2023-05-19T04:25:20.319Z,100.00
2023-05-19T04:27:48.941Z,100.00
2023-05-19T04:30:22.498Z,100.00
2023-05-19T04:32:54.041Z,100.00
2023-05-19T04:35:21.388Z,100.00
2023-05-19T04:37:49.201Z,100.00
2023-05-19T04:40:17.506Z,100.00
2023-05-19T04:42:46.189Z,100.00
2023-05-19T04:45:14.192Z,100.00
2023-05-19T04:47:42.509Z,100.00
2023-05-19T04:50:11.456Z,100.00
2023-05-19T04:52:38.589Z,100.00
2023-05-19T04:55:06.652Z,100.00
2023-05-19T04:57:33.922Z,100.00
2023-05-19T05:00:01.801Z,100.00
2023-05-19T05:02:32.301Z,100.00
2023-05-19T05:05:01.748Z,98.72
2023-05-19T05:07:31.593Z,97.29
2023-05-19T05:09:59.829Z,92.17
2023-05-19T05:12:27.763Z,90.00
2023-05-19T05:14:55.788Z,87.12
2023-05-19T05:17:23.204Z,87.17
2023-05-19T05:19:50.842Z,85.18
2023-05-19T05:22:18.773Z,86.38
2023-05-19T05:24:46.728Z,87.19
2023-05-19T05:27:14.627Z,87.33
2023-05-19T05:29:42.736Z,91.62
2023-05-19T05:32:10.407Z,90.71
2023-05-19T05:34:39.982Z,91.22
2023-05-19T05:37:07.510Z,90.88
2023-05-19T05:39:35.287Z,88.73
2023-05-19T05:42:02.669Z,86.75
2023-05-19T05:44:30.822Z,87.33
2023-05-19T05:46:58.549Z,77.38
2023-05-19T05:49:26.624Z,74.08
2023-05-19T05:52:05.556Z,69.97
2023-05-19T05:54:34.724Z,65.80
2023-05-19T05:57:03.477Z,63.49
2023-05-19T05:59:30.818Z,65.45
2023-05-19T06:01:58.286Z,57.40
2023-05-19T06:04:26.030Z,49.85
2023-05-19T06:06:57.106Z,45.96
2023-05-19T06:09:25.289Z,46.60
2023-05-19T06:11:52.854Z,47.95
2023-05-19T06:14:20.432Z,48.46
2023-05-19T06:16:48.452Z,48.21
2023-05-19T06:19:16.527Z,41.53
2023-05-19T06:21:44.628Z,42.45
2023-05-19T06:24:12.518Z,37.83
2023-05-19T06:26:40.168Z,34.42
2023-05-19T06:29:07.565Z,36.76
2023-05-19T06:31:34.837Z,37.48
2023-05-19T06:34:03.707Z,38.33
2023-05-19T06:36:31.489Z,39.36
2023-05-19T06:39:01.338Z,39.37
2023-05-19T06:41:31.315Z,36.99
2023-05-19T06:43:58.750Z,37.29
2023-05-19T06:46:26.045Z,37.08
2023-05-19T06:48:53.612Z,37.52
2023-05-19T06:51:22.485Z,38.11
2023-05-19T06:53:50.492Z,36.62
2023-05-19T06:56:19.084Z,36.77
2023-05-19T06:58:46.494Z,36.60
2023-05-19T07:01:13.732Z,37.21
2023-05-19T07:03:42.083Z,36.47
2023-05-19T07:06:09.501Z,38.02
2023-05-19T07:08:37.426Z,37.60
2023-05-19T07:11:05.373Z,34.12
2023-05-19T07:13:33.096Z,37.44
2023-05-19T07:16:00.400Z,40.38
2023-05-19T07:18:31.902Z,48.33
2023-05-19T07:21:14.921Z,46.68
2023-05-19T07:23:42.456Z,44.33
2023-05-19T07:26:09.651Z,43.34
2023-05-19T07:28:37.772Z,42.74
2023-05-19T07:31:06.923Z,43.18
2023-05-19T07:33:34.171Z,43.81
2023-05-19T07:36:01.454Z,44.81
2023-05-19T07:38:31.568Z,46.16
2023-05-19T07:40:58.932Z,44.86
2023-05-19T07:43:26.254Z,45.35
2023-05-19T07:45:56.396Z,44.77
2023-05-19T07:48:25.776Z,43.10
2023-05-19T07:50:53.337Z,41.44
2023-05-19T07:53:22.724Z,41.85
2023-05-19T07:55:50.314Z,41.71
2023-05-19T07:58:17.983Z,41.45
2023-05-19T08:00:46.334Z,39.66
2023-05-19T08:03:17.988Z,41.95
2023-05-19T08:05:46.088Z,42.12
2023-05-19T08:08:16.767Z,42.86
2023-05-19T08:10:44.277Z,45.43
2023-05-19T08:13:11.534Z,43.55
2023-05-19T08:15:39.461Z,45.69
2023-05-19T08:18:06.830Z,48.34
2023-05-19T08:20:34.618Z,45.89
2023-05-19T08:23:02.438Z,43.62
2023-05-19T08:25:29.618Z,44.31
2023-05-19T08:27:56.940Z,43.80
2023-05-19T08:30:24.536Z,45.86
2023-05-19T08:32:51.944Z,46.72
2023-05-19T08:35:21.870Z,49.03
2023-05-19T08:37:49.338Z,47.08
2023-05-19T08:40:18.435Z,44.68
2023-05-19T08:42:46.327Z,46.36
2023-05-19T08:45:13.967Z,47.20
2023-05-19T08:47:46.540Z,47.16
2023-05-19T08:50:18.204Z,51.46
2023-05-19T08:52:53.778Z,48.25
2023-05-19T08:55:37.317Z,52.82
2023-05-19T08:58:05.110Z,53.97
2023-05-19T09:00:33.385Z,54.86
2023-05-19T09:03:17.378Z,55.29
2023-05-19T09:09:16.168Z,50.97
2023-05-19T09:15:17.974Z,53.01
2023-05-19T09:17:48.227Z,53.84
2023-05-19T09:20:17.451Z,54.80
2023-05-19T09:22:48.300Z,55.66
2023-05-19T09:25:36.039Z,57.16
2023-05-19T09:28:07.720Z,59.75
2023-05-19T09:30:47.258Z,59.71
2023-05-19T09:33:19.972Z,57.51
2023-05-19T09:35:48.309Z,57.44
2023-05-19T09:38:19.646Z,57.81
2023-05-19T09:40:50.049Z,62.20
2023-05-19T09:43:17.976Z,56.95
2023-05-19T09:45:45.452Z,57.52
2023-05-19T09:48:14.795Z,58.48
2023-05-19T09:50:45.620Z,56.92
2023-05-19T09:53:14.414Z,53.83
2023-05-19T09:55:42.986Z,55.30
2023-05-19T09:58:12.582Z,51.89
2023-05-19T10:00:40.437Z,54.83
2023-05-19T10:03:09.305Z,57.52
2023-05-19T10:05:36.912Z,58.15
2023-05-19T10:08:10.613Z,56.65
2023-05-19T10:10:39.128Z,53.75
2023-05-19T10:13:07.172Z,52.63
2023-05-19T10:15:40.809Z,51.86
2023-05-19T10:18:14.246Z,53.12
2023-05-19T10:24:13.396Z,55.15
2023-05-19T10:26:48.249Z,56.75
2023-05-19T10:29:19.480Z,58.02
2023-05-19T10:31:48.206Z,57.89
2023-05-19T10:34:50.595Z,57.47
2023-05-19T10:37:29.619Z,59.73
2023-05-19T10:39:57.959Z,60.32
2023-05-19T10:43:02.333Z,62.11
2023-05-19T10:45:31.938Z,64.41
2023-05-19T10:47:59.873Z,61.75
2023-05-19T10:50:27.321Z,64.81
2023-05-19T10:52:56.313Z,66.83
2023-05-19T10:55:47.685Z,63.70
2023-05-19T10:58:14.941Z,66.75
2023-05-19T11:00:42.424Z,64.43
2023-05-19T11:03:36.283Z,57.50
2023-05-19T11:06:25.150Z,61.18
2023-05-19T11:08:54.870Z,59.03
2023-05-19T11:11:23.617Z,61.59
2023-05-19T11:13:52.974Z,61.90
2023-05-19T11:16:30.680Z,67.53
2023-05-19T11:19:02.090Z,59.77
2023-05-19T11:21:46.685Z,59.01
2023-05-19T11:24:40.148Z,59.38
2023-05-19T11:27:33.362Z,54.95
2023-05-19T11:30:20.214Z,56.87
2023-05-19T11:32:48.542Z,56.90
2023-05-19T11:35:19.270Z,56.48
2023-05-19T11:37:48.854Z,59.37
2023-05-19T11:40:19.671Z,62.07
2023-05-19T11:42:47.247Z,61.26
2023-05-19T11:45:14.472Z,59.05
2023-05-19T11:48:00.275Z,59.35
2023-05-19T11:50:29.130Z,62.85
2023-05-19T11:52:57.882Z,58.46
2023-05-19T11:55:25.473Z,55.11
2023-05-19T11:58:04.048Z,55.70
2023-05-19T12:00:40.402Z,60.51
2023-05-19T12:03:09.565Z,61.09
2023-05-19T12:05:42.794Z,59.75
2023-05-19T12:08:12.017Z,56.53
2023-05-19T12:10:40.479Z,55.72
2023-05-19T12:13:12.151Z,56.70
2023-05-19T12:15:41.351Z,56.96
2023-05-19T12:18:08.746Z,57.67
2023-05-19T12:20:36.601Z,56.08
2023-05-19T12:23:04.863Z,54.62
2023-05-19T12:25:32.870Z,54.71
2023-05-19T12:28:04.936Z,57.36
2023-05-19T12:30:35.997Z,57.89
2023-05-19T12:33:03.748Z,57.98
2023-05-19T12:35:36.297Z,57.92
2023-05-19T12:38:05.125Z,56.28
2023-05-19T12:40:37.737Z,58.58
2023-05-19T12:43:06.924Z,57.36
2023-05-19T12:45:38.352Z,56.17
2023-05-19T12:48:11.215Z,57.04
2023-05-19T12:50:38.694Z,56.80
2023-05-19T12:53:09.306Z,56.61
2023-05-19T12:55:44.104Z,56.82
2023-05-19T12:58:12.395Z,55.66
2023-05-19T13:00:49.902Z,55.28
2023-05-19T13:03:19.832Z,54.20
2023-05-19T13:05:54.023Z,55.57
2023-05-19T13:08:26.645Z,55.99
2023-05-19T13:10:54.427Z,56.18
2023-05-19T13:13:23.217Z,57.33
2023-05-19T13:15:50.467Z,56.40
2023-05-19T13:18:24.931Z,53.41
2023-05-19T13:20:57.638Z,55.35
2023-05-19T13:23:25.854Z,52.74
2023-05-19T13:25:53.464Z,54.71
2023-05-19T13:28:20.953Z,56.65
2023-05-19T13:30:49.707Z,53.70
2023-05-19T13:33:20.221Z,54.01
2023-05-19T13:35:50.223Z,53.83
2023-05-19T13:38:17.840Z,53.06
2023-05-19T13:40:45.763Z,53.77
2023-05-19T13:43:13.170Z,53.47
2023-05-19T13:45:42.903Z,53.36
2023-05-19T13:48:11.940Z,52.81
2023-05-19T13:50:39.269Z,52.71
2023-05-19T13:53:06.753Z,53.29
2023-05-19T13:55:34.048Z,53.60
2023-05-19T13:58:01.414Z,52.74
2023-05-19T14:00:29.056Z,54.55
2023-05-19T14:02:56.774Z,48.74
2023-05-19T14:05:24.116Z,49.35
2023-05-19T14:07:51.822Z,51.94
2023-05-19T14:10:19.394Z,51.20
2023-05-19T14:13:14.170Z,52.85
2023-05-19T14:15:37.934Z,52.45
2023-05-19T14:18:06.673Z,51.61
2023-05-19T14:20:39.193Z,52.48
2023-05-19T14:23:10.532Z,53.14
2023-05-19T14:25:39.407Z,52.57
2023-05-19T14:28:06.734Z,53.11
2023-05-19T14:30:36.308Z,55.44
2023-05-19T14:33:04.034Z,55.20
2023-05-19T14:35:31.304Z,54.36
2023-05-19T14:37:58.900Z,54.36
2023-05-19T14:40:26.658Z,53.65
2023-05-19T14:42:55.029Z,52.63
2023-05-19T14:45:22.230Z,53.28
2023-05-19T14:47:49.964Z,53.21
2023-05-19T14:50:17.258Z,51.08
2023-05-19T14:52:44.742Z,50.58
2023-05-19T14:55:12.266Z,50.01
2023-05-19T14:57:39.518Z,49.63
2023-05-19T15:00:09.327Z,49.60
2023-05-19T15:02:36.836Z,47.68
2023-05-19T15:05:04.644Z,46.56
2023-05-19T15:07:32.013Z,49.03
2023-05-19T15:09:59.856Z,49.56
2023-05-19T15:12:29.557Z,50.69
2023-05-19T15:14:56.922Z,50.77
2023-05-19T15:17:24.447Z,50.45
2023-05-19T15:19:51.850Z,50.08
2023-05-19T15:22:19.192Z,49.98
2023-05-19T15:24:46.860Z,51.48
2023-05-19T15:27:14.133Z,52.33
2023-05-19T15:29:41.356Z,53.64
2023-05-19T15:32:09.039Z,54.68
2023-05-19T15:34:36.540Z,54.20
2023-05-19T15:37:04.086Z,54.83
2023-05-19T15:39:32.392Z,53.77
2023-05-19T15:41:59.749Z,52.81
2023-05-19T15:44:28.939Z,53.24
2023-05-19T15:46:57.106Z,53.64
2023-05-19T15:49:27.570Z,52.19
2023-05-19T15:51:54.925Z,53.06
2023-05-19T15:54:22.564Z,51.64
2023-05-19T15:56:49.868Z,54.68
2023-05-19T15:59:17.308Z,55.56
2023-05-19T16:01:45.097Z,56.75
2023-05-19T16:04:12.775Z,55.02
2023-05-19T16:06:40.050Z,54.23
2023-05-19T16:09:07.270Z,55.37
2023-05-19T16:11:34.825Z,56.72
2023-05-19T16:14:02.006Z,54.63
2023-05-19T16:16:37.524Z,53.72
2023-05-19T16:19:05.202Z,53.85
2023-05-19T16:21:43.656Z,55.71
2023-05-19T16:24:11.276Z,54.26
2023-05-19T16:26:38.604Z,56.13
2023-05-19T16:29:06.047Z,53.70
2023-05-19T16:31:36.313Z,53.38
2023-05-19T16:34:03.891Z,54.75
2023-05-19T16:36:31.984Z,54.26
2023-05-19T16:39:01.818Z,54.03
2023-05-19T16:41:29.125Z,54.46
2023-05-19T16:43:56.388Z,55.67
2023-05-19T16:46:24.152Z,59.21
2023-05-19T16:48:51.846Z,62.08
2023-05-19T16:51:19.199Z,65.03
2023-05-19T16:53:47.829Z,66.41
2023-05-19T16:56:15.150Z,67.41
2023-05-19T16:58:42.406Z,69.62
2023-05-19T17:01:12.088Z,71.82
2023-05-19T17:03:39.485Z,75.15
2023-05-19T17:06:06.808Z,73.04
2023-05-19T17:08:34.475Z,74.26
2023-05-19T17:11:01.915Z,75.29
2023-05-19T17:13:33.867Z,76.11
2023-05-19T17:16:02.584Z,79.73
2023-05-19T17:18:31.395Z,80.37
2023-05-19T17:21:03.905Z,82.14
2023-05-19T17:23:32.598Z,82.57
2023-05-19T17:26:00.551Z,82.51
2023-05-19T17:28:30.974Z,81.56
2023-05-19T17:30:58.934Z,80.53
2023-05-19T17:33:26.432Z,82.96
2023-05-19T17:35:53.769Z,85.42
2023-05-19T17:38:23.912Z,85.10
2023-05-19T17:40:51.189Z,84.24
2023-05-19T17:43:18.465Z,86.41
2023-05-19T17:45:46.039Z,86.46
2023-05-19T17:48:13.476Z,88.16
2023-05-19T17:50:40.851Z,89.01
2023-05-19T17:53:08.927Z,89.53
2023-05-19T17:55:36.553Z,91.07
2023-05-19T17:58:04.177Z,93.50
2023-05-19T18:00:32.154Z,95.03
2023-05-19T18:03:01.939Z,95.57
2023-05-19T18:05:33.417Z,96.40
2023-05-19T18:08:05.140Z,100.00
2023-05-19T18:10:36.607Z,99.54
2023-05-19T18:13:05.430Z,99.69
2023-05-19T18:15:33.069Z,100.00
2023-05-19T18:18:02.521Z,100.00
2023-05-19T18:20:31.212Z,100.00
2023-05-19T18:22:58.665Z,100.00
2023-05-19T18:25:26.385Z,100.00
2023-05-19T18:27:55.927Z,100.00
2023-05-19T18:30:23.654Z,100.00
2023-05-19T18:32:51.005Z,100.00
2023-05-19T18:35:20.852Z,100.00
2023-05-19T18:37:48.171Z,100.00
2023-05-19T18:40:15.447Z,100.00
2023-05-19T18:42:43.263Z,100.00
2023-05-19T18:45:20.298Z,100.00
2023-05-19T18:47:48.251Z,100.00
2023-05-19T18:50:16.718Z,100.00
2023-05-19T18:52:44.067Z,100.00
2023-05-19T18:55:11.662Z,100.00
2023-05-19T18:57:38.981Z,100.00
2023-05-19T19:00:07.033Z,100.00
2023-05-19T19:02:34.671Z,100.00
2023-05-19T19:05:04.136Z,100.00
2023-05-19T19:07:31.901Z,100.00
2023-05-19T19:09:59.516Z,100.00
2023-05-19T19:12:26.821Z,100.00
2023-05-19T19:14:54.656Z,100.00
2023-05-19T19:17:22.257Z,100.00
2023-05-19T19:19:50.024Z,100.00
2023-05-19T19:22:17.521Z,100.00
2023-05-19T19:24:45.647Z,100.00
2023-05-19T19:27:13.401Z,100.00
2023-05-19T19:29:40.830Z,100.00
2023-05-19T19:32:08.621Z,100.00
2023-05-19T19:34:36.063Z,100.00
2023-05-19T19:37:04.055Z,100.00
2023-05-19T19:39:31.724Z,100.00
2023-05-19T19:41:59.002Z,100.00
2023-05-19T19:44:26.335Z,100.00
2023-05-19T19:46:54.067Z,100.00
2023-05-19T19:49:21.523Z,100.00
2023-05-19T19:51:49.107Z,100.00
2023-05-19T19:54:16.740Z,100.00
2023-05-19T19:56:57.062Z,100.00
2023-05-19T20:06:02.466Z,100.00
2023-05-19T20:08:29.959Z,100.00
2023-05-19T20:10:57.149Z,100.00
2023-05-19T20:13:24.497Z,100.00
2023-05-19T20:15:52.138Z,100.00
2023-05-19T20:18:19.320Z,100.00
2023-05-19T20:20:46.666Z,100.00
2023-05-19T20:23:16.301Z,100.00
2023-05-19T20:25:58.524Z,100.00
2023-05-19T20:28:30.586Z,100.00
2023-05-19T20:30:57.973Z,100.00
2023-05-19T20:33:25.252Z,100.00
2023-05-19T20:35:52.721Z,100.00
2023-05-19T20:38:19.972Z,100.00
2023-05-19T20:40:47.847Z,100.00
2023-05-19T20:52:42.297Z,100.00
2023-05-19T20:58:40.661Z,100.00
2023-05-19T21:01:08.249Z,100.00
2023-05-19T21:03:35.777Z,100.00
2023-05-19T21:06:03.316Z,100.00
2023-05-19T21:08:30.941Z,100.00
2023-05-19T21:10:58.240Z,100.00
2023-05-19T21:13:25.499Z,100.00
2023-05-19T21:15:53.020Z,100.00
2023-05-19T21:18:20.366Z,100.00
2023-05-19T21:20:47.766Z,100.00
2023-05-19T21:23:15.793Z,100.00
2023-05-19T21:25:45.172Z,100.00
2023-05-19T21:28:12.843Z,100.00
2023-05-19T21:30:40.414Z,100.00
2023-05-19T21:33:07.836Z,100.00
2023-05-19T21:35:35.143Z,100.00
2023-05-19T21:38:12.116Z,100.00
2023-05-19T21:40:49.817Z,100.00
2023-05-19T21:43:17.445Z,100.00
2023-05-19T21:45:45.148Z,100.00
2023-05-19T21:48:12.420Z,100.00
2023-05-19T21:50:40.094Z,100.00
2023-05-19T21:53:07.345Z,100.00
2023-05-19T21:55:34.987Z,100.00
2023-05-19T21:58:02.963Z,100.00
2023-05-19T22:00:30.418Z,100.00
2023-05-19T22:02:58.067Z,100.00
2023-05-19T22:05:25.783Z,100.00
2023-05-19T22:07:52.932Z,100.00
2023-05-19T22:10:20.430Z,100.00
2023-05-19T22:12:47.758Z,100.00
2023-05-19T22:15:15.944Z,100.00
2023-05-19T22:17:43.848Z,100.00
2023-05-19T22:20:11.932Z,100.00
2023-05-19T22:22:39.159Z,100.00
2023-05-19T22:25:07.201Z,100.00
2023-05-19T22:27:34.479Z,100.00
2023-05-19T22:30:01.778Z,100.00
2023-05-19T22:32:30.466Z,100.00
2023-05-19T22:34:57.682Z,100.00
2023-05-19T22:37:24.943Z,100.00
2023-05-19T22:39:52.465Z,100.00
2023-05-19T22:42:19.750Z,100.00
2023-05-19T22:44:46.977Z,100.00
2023-05-19T22:47:15.090Z,100.00
2023-05-19T22:56:35.888Z,100.00
2023-05-19T22:59:03.426Z,100.00
2023-05-19T23:01:30.731Z,100.00
2023-05-19T23:03:58.045Z,100.00
2023-05-19T23:06:25.790Z,100.00
2023-05-19T23:09:01.143Z,100.00
2023-05-19T23:11:28.658Z,100.00
2023-05-19T23:13:56.057Z,100.00
2023-05-19T23:16:23.337Z,100.00
2023-05-19T23:18:50.987Z,100.00
2023-05-19T23:21:18.284Z,100.00
2023-05-19T23:23:45.615Z,100.00
2023-05-19T23:26:16.221Z,100.00
2023-05-19T23:28:43.681Z,100.00
2023-05-19T23:31:10.993Z,100.00
2023-05-19T23:33:38.655Z,100.00
2023-05-19T23:36:10.214Z,100.00
2023-05-19T23:38:37.867Z,100.00
2023-05-19T23:41:05.664Z,100.00
2023-05-19T23:43:32.991Z,100.00
2023-05-19T23:46:00.615Z,100.00
2023-05-19T23:48:29.273Z,100.00
2023-05-19T23:50:57.649Z,100.00
2023-05-19T23:53:25.202Z,100.00
2023-05-19T23:55:52.729Z,100.00
2023-05-19T23:58:20.006Z,100.00
